Time;durP1;ratioP1;P1;durP2;ratioP2;P2;SDS_P1;SDS_P2;PMS_P1;PMS_P2;Temp;Humidity;BMP_temperature;BMP_pressure;BME280_temperature;BME280_humidity;BME280_pressure;Samples;Min_cycle;Max_cycle;Signal;HPM_P1;HPM_P2
2023/01/06 00:02:15;;;;;;;24.97;14.57;;;7.80;99.90;;;;;;4956181;28;20604;-60
2023/01/06 00:04:43;;;;;;;27.33;14.27;;;7.80;99.90;;;;;;4957034;28;20714;-60
2023/01/06 00:07:11;;;;;;;28.80;13.23;;;7.80;99.90;;;;;;4956875;28;20243;-60
2023/01/06 00:09:39;;;;;;;26.77;15.30;;;7.80;99.90;;;;;;4956732;28;20230;-60
2023/01/06 00:12:07;;;;;;;24.40;13.43;;;7.80;99.90;;;;;;4957139;28;20591;-60
2023/01/06 00:14:35;;;;;;;26.80;13.87;;;7.70;99.90;;;;;;4956972;28;20215;-60
2023/01/06 00:17:03;;;;;;;25.20;14.97;;;7.80;99.90;;;;;;4957085;28;20656;-60
2023/01/06 00:19:33;;;;;;;30.73;15.10;;;7.80;99.90;;;;;;4956603;28;20227;-60
2023/01/06 00:22:01;;;;;;;24.67;14.47;;;7.80;99.90;;;;;;4956956;28;20686;-60
2023/01/06 00:24:29;;;;;;;28.17;14.23;;;7.80;99.90;;;;;;4956452;28;20227;-60
2023/01/06 00:26:57;;;;;;;23.97;14.47;;;7.80;99.90;;;;;;4956413;28;20258;-60
2023/01/06 00:29:25;;;;;;;27.23;14.83;;;7.90;99.90;;;;;;4956336;28;20246;-60
2023/01/06 00:31:53;;;;;;;27.87;15.43;;;7.90;99.90;;;;;;4955718;28;20238;-61
2023/01/06 00:34:21;;;;;;;30.67;14.90;;;7.90;99.90;;;;;;4956291;28;20219;-61
2023/01/06 00:36:50;;;;;;;27.50;14.33;;;7.90;99.90;;;;;;4956323;28;20215;-60
2023/01/06 00:39:18;;;;;;;31.67;15.17;;;8.00;99.90;;;;;;4956817;28;20690;-60
2023/01/06 00:42:05;;;;;;;29.30;15.27;;;8.00;99.90;;;;;;4956287;28;20224;-60
2023/01/06 00:44:35;;;;;;;26.57;15.13;;;8.00;99.90;;;;;;4956178;28;20286;-59
2023/01/06 00:47:08;;;;;;;29.47;15.67;;;8.00;99.90;;;;;;4954785;29;20738;-60
2023/01/06 00:49:37;;;;;;;29.17;16.00;;;8.00;99.90;;;;;;4956235;28;20234;-60
2023/01/06 00:52:07;;;;;;;36.90;16.97;;;8.00;99.90;;;;;;4956156;28;20223;-60
2023/01/06 00:54:36;;;;;;;33.43;17.30;;;8.00;99.90;;;;;;4955917;28;20227;-60
2023/01/06 00:57:06;;;;;;;36.00;17.00;;;8.00;99.90;;;;;;4954683;29;20254;-60
2023/01/06 00:59:35;;;;;;;31.67;16.33;;;8.10;99.90;;;;;;4955445;28;20227;-60
2023/01/06 01:02:03;;;;;;;31.27;18.07;;;8.10;99.90;;;;;;4955486;28;20444;-60
2023/01/06 01:04:31;;;;;;;31.13;17.30;;;8.10;99.90;;;;;;4955617;28;20224;-60
2023/01/06 01:07:00;;;;;;;36.40;17.33;;;8.10;99.90;;;;;;4954501;28;20250;-60
2023/01/06 01:09:31;;;;;;;33.90;18.60;;;8.10;99.90;;;;;;4955617;28;20226;-61
2023/01/06 01:12:11;;;;;;;35.77;19.20;;;8.10;99.90;;;;;;4955742;28;20219;-60
2023/01/06 01:14:46;;;;;;;40.33;19.50;;;8.20;99.90;;;;;;4954300;29;20298;-59
2023/01/06 01:17:18;;;;;;;41.13;18.77;;;8.20;99.90;;;;;;4954314;29;20222;-60
2023/01/06 01:19:46;;;;;;;42.33;20.07;;;8.20;99.90;;;;;;4955354;28;20588;-60
2023/01/06 01:22:14;;;;;;;40.90;20.60;;;8.20;99.90;;;;;;4955803;28;20627;-60
2023/01/06 01:24:45;;;;;;;39.97;20.47;;;8.20;99.90;;;;;;4955523;28;20586;-61
2023/01/06 01:27:13;;;;;;;39.47;20.07;;;8.20;99.90;;;;;;4955618;28;20249;-60
2023/01/06 01:29:41;;;;;;;43.03;20.90;;;8.30;99.90;;;;;;4955012;28;20231;-61
2023/01/06 01:32:10;;;;;;;46.77;20.10;;;8.30;99.90;;;;;;4940083;29;20719;-61
2023/01/06 01:34:38;;;;;;;40.30;19.93;;;8.30;99.90;;;;;;4955338;28;20590;-61
2023/01/06 01:37:06;;;;;;;40.97;21.37;;;8.30;99.90;;;;;;4955537;28;20262;-60
2023/01/06 01:39:34;;;;;;;38.87;19.87;;;8.30;99.90;;;;;;4954485;28;20704;-61
2023/01/06 01:42:11;;;;;;;40.70;20.63;;;8.40;99.90;;;;;;4955517;28;20234;-60
2023/01/06 01:44:54;;;;;;;44.30;20.40;;;8.40;99.90;;;;;;4954757;28;20223;-60
2023/01/06 01:47:43;;;;;;;43.13;20.50;;;8.40;99.90;;;;;;4954962;28;20224;-60
2023/01/06 01:50:28;;;;;;;41.83;19.87;;;8.40;99.90;;;;;;4953474;29;20586;-60
2023/01/06 01:53:00;;;;;;;40.97;21.13;;;8.50;99.90;;;;;;4955281;29;20238;-60
2023/01/06 01:55:30;;;;;;;47.03;21.67;;;8.50;99.90;;;;;;4955088;28;20233;-60
2023/01/06 01:58:04;;;;;;;41.53;21.13;;;8.50;99.90;;;;;;4954914;29;20243;-61
2023/01/06 02:00:33;;;;;;;42.30;20.60;;;8.50;99.90;;;;;;4953971;28;20227;-60
2023/01/06 02:03:02;;;;;;;43.70;22.23;;;8.60;99.90;;;;;;4954525;28;20242;-60
2023/01/06 02:05:31;;;;;;;39.37;20.77;;;8.60;99.90;;;;;;4954572;28;20282;-60
2023/01/06 02:08:05;;;;;;;39.27;21.67;;;8.60;99.90;;;;;;4953502;29;20243;-61
2023/01/06 02:10:33;;;;;;;42.77;21.67;;;8.60;99.90;;;;;;4953313;29;20245;-60
2023/01/06 02:13:02;;;;;;;39.80;20.03;;;8.60;99.90;;;;;;4954787;28;20670;-60
2023/01/06 02:15:32;;;;;;;43.57;22.60;;;8.70;99.90;;;;;;4953271;29;20237;-60
2023/01/06 02:18:20;;;;;;;51.20;23.63;;;8.70;99.90;;;;;;4954571;28;20695;-60
2023/01/06 02:21:12;;;;;;;42.53;21.90;;;8.70;99.90;;;;;;4952963;29;20318;-61
2023/01/06 02:23:57;;;;;;;43.60;22.30;;;8.60;99.90;;;;;;4953138;29;20281;-61
2023/01/06 02:27:10;;;;;;;49.83;24.20;;;8.80;99.90;;;;;;4953332;29;20313;-60
2023/01/06 02:30:05;;;;;;;49.30;24.90;;;8.70;99.90;;;;;;4916744;29;20232;-60
2023/01/06 02:32:58;;;;;;;45.87;24.37;;;8.80;99.90;;;;;;4941139;29;20270;-61
2023/01/06 02:35:47;;;;;;;50.10;26.20;;;8.80;99.90;;;;;;4953026;29;20239;-58
2023/01/06 02:38:25;;;;;;;49.50;25.03;;;8.80;99.90;;;;;;4954557;28;20291;-60
2023/01/06 02:41:08;;;;;;;56.33;26.77;;;8.70;99.90;;;;;;4954463;28;20235;-60
2023/01/06 02:43:50;;;;;;;49.33;26.00;;;8.80;99.90;;;;;;4953050;29;20714;-60
2023/01/06 02:46:28;;;;;;;58.07;28.17;;;8.90;99.90;;;;;;4953164;29;20270;-60
2023/01/06 02:49:07;;;;;;;53.97;27.23;;;8.80;99.90;;;;;;4954200;28;20782;-61
2023/01/06 02:51:44;;;;;;;55.33;28.67;;;8.90;99.90;;;;;;4955951;28;20253;-60
2023/01/06 02:54:20;;;;;;;59.67;28.57;;;8.90;99.90;;;;;;4958186;29;20242;-60
2023/01/06 02:56:57;;;;;;;56.57;28.40;;;8.90;99.90;;;;;;4956898;29;20231;-61
2023/01/06 02:59:31;;;;;;;61.77;29.03;;;8.90;99.90;;;;;;4950918;28;20262;-60
2023/01/06 03:02:01;;;;;;;59.63;29.73;;;8.90;99.90;;;;;;4956246;29;20330;-60
2023/01/06 03:04:36;;;;;;;61.13;29.23;;;8.90;99.90;;;;;;4956449;29;20231;-60
2023/01/06 03:07:07;;;;;;;60.27;29.43;;;8.90;99.90;;;;;;4956823;29;20757;-61
2023/01/06 03:09:38;;;;;;;60.57;30.23;;;8.90;99.90;;;;;;4956610;28;20366;-61
2023/01/06 03:12:14;;;;;;;60.27;29.40;;;9.00;99.90;;;;;;4958243;28;20632;-60
2023/01/06 03:14:46;;;;;;;69.87;31.87;;;9.00;99.90;;;;;;4956498;29;20289;-61
2023/01/06 03:17:15;;;;;;;63.70;30.07;;;9.00;99.90;;;;;;4956527;29;20595;-61
2023/01/06 03:19:45;;;;;;;63.73;31.40;;;9.00;99.90;;;;;;4957185;28;20215;-61
2023/01/06 03:22:17;;;;;;;64.83;31.47;;;9.00;99.90;;;;;;4956567;29;20286;-61
2023/01/06 03:24:45;;;;;;;62.27;31.37;;;9.00;99.90;;;;;;4956290;28;20949;-61
2023/01/06 03:27:15;;;;;;;65.00;29.10;;;9.10;99.90;;;;;;4956445;29;20655;-61
2023/01/06 03:29:43;;;;;;;63.03;31.17;;;9.10;99.90;;;;;;4956048;28;20774;-61
2023/01/06 03:32:22;;;;;;;61.97;31.17;;;9.10;99.90;;;;;;4941423;29;20235;-60
2023/01/06 03:35:04;;;;;;;61.57;30.43;;;9.10;99.90;;;;;;4957681;28;20231;-61
2023/01/06 03:37:44;;;;;;;67.07;30.97;;;9.10;99.90;;;;;;4956055;29;20232;-60
2023/01/06 03:40:23;;;;;;;60.27;30.60;;;9.10;99.90;;;;;;4957615;28;20319;-60
2023/01/06 03:43:14;;;;;;;56.33;29.23;;;9.10;99.90;;;;;;4956207;29;20698;-61
2023/01/06 03:45:55;;;;;;;57.67;29.83;;;9.10;99.90;;;;;;4955977;28;20231;-61
2023/01/06 03:48:43;;;;;;;58.97;29.80;;;9.10;99.90;;;;;;4955425;29;20239;-61
2023/01/06 03:51:25;;;;;;;55.07;28.70;;;9.10;99.90;;;;;;4941193;29;20594;-60
2023/01/06 03:54:01;;;;;;;56.83;31.23;;;9.20;99.90;;;;;;4955392;29;20231;-61
2023/01/06 03:56:34;;;;;;;58.47;28.67;;;9.10;99.90;;;;;;4955719;29;20223;-60
2023/01/06 03:59:09;;;;;;;59.07;29.00;;;9.10;99.90;;;;;;4955698;29;20235;-60
2023/01/06 04:01:40;;;;;;;54.07;28.20;;;9.20;99.90;;;;;;4954362;28;20255;-60
2023/01/06 04:04:09;;;;;;;55.03;28.43;;;9.20;99.90;;;;;;4952370;28;20235;-60
2023/01/06 04:06:38;;;;;;;56.33;29.37;;;9.20;99.90;;;;;;4937616;29;20224;-60
2023/01/06 04:09:06;;;;;;;54.70;29.57;;;9.20;99.90;;;;;;4936431;29;20704;-61
2023/01/06 04:14:23;;;;;;;49.77;28.77;;;9.30;99.90;;;;;;4936387;29;20228;-60
2023/01/06 04:16:52;;;;;;;53.20;29.10;;;9.30;99.90;;;;;;4938264;29;20223;-60
2023/01/06 04:19:20;;;;;;;52.97;29.70;;;9.30;99.90;;;;;;4955179;29;20242;-60
2023/01/06 04:21:50;;;;;;;52.57;28.97;;;9.30;99.90;;;;;;4955327;29;20783;-60
2023/01/06 04:24:18;;;;;;;53.70;27.90;;;9.30;99.90;;;;;;4955339;29;20286;-60
2023/01/06 04:26:46;;;;;;;55.60;28.43;;;9.30;99.90;;;;;;4955211;29;20283;-61
2023/01/06 04:29:14;;;;;;;52.63;28.47;;;9.30;99.90;;;;;;4955002;29;20247;-60
2023/01/06 04:31:43;;;;;;;59.70;36.22;;;9.30;99.90;;;;;;4953785;28;20471;-61
2023/01/06 04:34:11;;;;;;;52.33;30.67;;;9.30;99.90;;;;;;4947445;29;20315;-61
2023/01/06 04:36:40;;;;;;;54.33;30.00;;;9.30;99.90;;;;;;4955021;29;20227;-60
2023/01/06 04:39:09;;;;;;;54.33;29.87;;;9.30;99.90;;;;;;4955117;28;20245;-61
2023/01/06 04:41:37;;;;;;;49.03;26.90;;;9.30;99.90;;;;;;4956699;28;20770;-60
2023/01/06 04:44:05;;;;;;;49.00;26.10;;;9.40;99.90;;;;;;4956606;28;20251;-60
2023/01/06 04:46:33;;;;;;;48.63;28.33;;;9.40;99.90;;;;;;4956064;28;20230;-61
2023/01/06 04:49:01;;;;;;;46.80;26.63;;;9.40;99.90;;;;;;4956292;28;20679;-60
2023/01/06 04:51:29;;;;;;;49.80;25.47;;;9.40;99.90;;;;;;4955913;29;20235;-61
2023/01/06 04:53:57;;;;;;;50.23;28.30;;;9.40;99.90;;;;;;4956370;29;20227;-59
2023/01/06 04:56:27;;;;;;;44.53;26.77;;;9.40;99.90;;;;;;4956115;29;20227;-60
2023/01/06 04:58:56;;;;;;;41.67;26.50;;;9.40;99.90;;;;;;4956011;29;20226;-61
2023/01/06 05:01:25;;;;;;;45.50;26.53;;;9.40;99.90;;;;;;4955536;28;20707;-58
2023/01/06 05:03:54;;;;;;;44.30;25.17;;;9.30;99.90;;;;;;4955682;28;20227;-61
2023/01/06 05:06:22;;;;;;;45.30;25.50;;;9.40;99.90;;;;;;4955567;28;20246;-60
2023/01/06 05:08:50;;;;;;;44.63;25.00;;;9.30;99.90;;;;;;4956008;28;20722;-61
2023/01/06 05:11:21;;;;;;;42.30;25.13;;;9.40;99.90;;;;;;4955972;29;20239;-60
2023/01/06 05:13:50;;;;;;;42.10;24.60;;;9.40;99.90;;;;;;4954819;28;20308;-61
2023/01/06 05:16:21;;;;;;;39.93;25.00;;;9.40;99.90;;;;;;4955158;29;20223;-60
2023/01/06 05:18:49;;;;;;;41.97;25.40;;;9.40;99.90;;;;;;4954985;29;20227;-59
2023/01/06 05:21:19;;;;;;;40.00;25.20;;;9.40;99.90;;;;;;4955739;28;20744;-60
2023/01/06 05:23:48;;;;;;;42.53;23.77;;;9.40;99.90;;;;;;4955326;28;20235;-61
2023/01/06 05:26:19;;;;;;;37.70;24.73;;;9.30;99.90;;;;;;4955455;29;20286;-61
2023/01/06 05:28:48;;;;;;;38.23;24.57;;;9.30;99.90;;;;;;4955128;29;20247;-61
2023/01/06 05:31:17;;;;;;;41.67;25.83;;;9.40;99.90;;;;;;4955110;28;20242;-61
2023/01/06 05:33:45;;;;;;;36.13;23.90;;;9.40;99.90;;;;;;4955086;28;20239;-60
2023/01/06 05:36:15;;;;;;;39.90;25.63;;;9.40;99.90;;;;;;4955350;28;20231;-60
2023/01/06 05:38:44;;;;;;;39.67;24.13;;;9.40;99.90;;;;;;4955195;28;20235;-61
2023/01/06 05:41:12;;;;;;;40.53;24.53;;;9.40;99.90;;;;;;4955259;29;20238;-61
2023/01/06 05:43:40;;;;;;;38.93;24.90;;;9.40;99.90;;;;;;4955207;28;20254;-58
2023/01/06 05:46:10;;;;;;;42.23;25.03;;;9.40;99.90;;;;;;4955107;29;20285;-60
2023/01/06 05:48:40;;;;;;;38.97;23.60;;;9.40;99.90;;;;;;4946776;29;20247;-60
2023/01/06 05:51:10;;;;;;;35.77;22.40;;;9.40;99.90;;;;;;4955178;28;20234;-61
2023/01/06 05:53:39;;;;;;;37.67;24.33;;;9.40;99.90;;;;;;4953982;28;20326;-60
2023/01/06 05:56:09;;;;;;;39.50;24.70;;;9.40;99.90;;;;;;4954518;28;20687;-60
2023/01/06 05:58:39;;;;;;;33.67;22.77;;;9.40;99.90;;;;;;4954290;28;20235;-60
2023/01/06 06:01:15;;;;;;;33.03;22.30;;;9.40;99.90;;;;;;4954411;28;20239;-60
2023/01/06 06:03:45;;;;;;;33.83;21.90;;;9.40;99.90;;;;;;4954233;28;20702;-61
2023/01/06 06:06:14;;;;;;;35.03;23.30;;;9.40;99.90;;;;;;4935748;29;20714;-61
2023/01/06 06:08:42;;;;;;;34.13;22.67;;;9.30;99.90;;;;;;4935810;29;20236;-60
2023/01/06 06:11:11;;;;;;;35.90;23.13;;;9.40;99.90;;;;;;4944079;29;20231;-61
2023/01/06 06:13:44;;;;;;;35.13;22.73;;;9.40;99.90;;;;;;4954673;29;20247;-60
2023/01/06 06:16:14;;;;;;;34.53;23.03;;;9.40;99.90;;;;;;4954620;29;20240;-61
2023/01/06 06:18:42;;;;;;;30.47;22.77;;;9.40;99.90;;;;;;4954823;28;20641;-60
2023/01/06 06:21:14;;;;;;;32.40;22.80;;;9.40;99.90;;;;;;4953785;28;20687;-60
2023/01/06 06:23:42;;;;;;;30.33;22.33;;;9.40;99.90;;;;;;4948551;29;20242;-61
2023/01/06 06:26:11;;;;;;;36.40;24.13;;;9.40;99.90;;;;;;4946934;29;20234;-61
2023/01/06 06:28:40;;;;;;;38.03;26.57;;;9.40;99.90;;;;;;4954122;29;20227;-59
2023/01/06 06:31:10;;;;;;;38.40;24.50;;;9.40;99.90;;;;;;4953834;28;20231;-60
2023/01/06 06:33:38;;;;;;;35.47;25.13;;;9.50;99.90;;;;;;4954275;28;20697;-61
2023/01/06 06:36:10;;;;;;;32.00;23.87;;;9.50;99.90;;;;;;4954056;28;20231;-61
2023/01/06 06:38:39;;;;;;;32.37;24.47;;;9.50;99.90;;;;;;4952022;29;20584;-61
2023/01/06 06:41:08;;;;;;;37.73;24.23;;;9.40;99.90;;;;;;4954266;28;20223;-60
2023/01/06 06:43:36;;;;;;;33.57;23.67;;;9.40;99.90;;;;;;4954567;28;20238;-60
2023/01/06 06:46:04;;;;;;;41.23;29.97;;;9.40;99.90;;;;;;4954728;28;20568;-61
2023/01/06 06:48:32;;;;;;;38.63;27.37;;;9.40;99.90;;;;;;4954238;28;20294;-61
2023/01/06 06:51:02;;;;;;;42.63;30.80;;;9.40;99.90;;;;;;4954263;29;20241;-61
2023/01/06 06:53:31;;;;;;;37.87;27.63;;;9.40;99.90;;;;;;4954752;28;20218;-60
2023/01/06 06:56:01;;;;;;;33.47;24.87;;;9.40;99.90;;;;;;4954610;29;20235;-61
2023/01/06 06:58:29;;;;;;;32.33;24.17;;;9.50;99.90;;;;;;4954279;28;20307;-60
2023/01/06 07:00:57;;;;;;;32.07;23.40;;;9.50;99.90;;;;;;4953545;28;20243;-61
2023/01/06 07:03:25;;;;;;;25.93;20.47;;;9.40;99.90;;;;;;4953698;29;20238;-60
2023/01/06 07:05:54;;;;;;;29.87;22.07;;;9.50;99.90;;;;;;4954213;28;20251;-61
2023/01/06 07:08:22;;;;;;;27.97;20.97;;;9.50;99.90;;;;;;4954388;29;20239;-61
2023/01/06 07:10:50;;;;;;;29.07;20.50;;;9.40;99.90;;;;;;4954201;29;20236;-59
2023/01/06 07:13:19;;;;;;;28.97;21.70;;;9.50;99.90;;;;;;4954243;29;20560;-60
2023/01/06 07:15:47;;;;;;;27.53;20.80;;;9.40;99.90;;;;;;4954082;28;20628;-61
2023/01/06 07:18:16;;;;;;;25.77;20.83;;;9.40;99.90;;;;;;4953828;29;20236;-61
2023/01/06 07:20:48;;;;;;;25.40;20.10;;;9.40;99.90;;;;;;4951578;29;20231;-62
2023/01/06 07:23:16;;;;;;;24.67;19.23;;;9.40;99.90;;;;;;4953790;28;20234;-60
2023/01/06 07:25:45;;;;;;;23.33;18.53;;;9.40;99.90;;;;;;4953778;29;20247;-61
2023/01/06 07:28:13;;;;;;;25.27;19.53;;;9.40;99.90;;;;;;4954019;28;20707;-60
2023/01/06 07:30:42;;;;;;;27.53;18.83;;;9.40;99.90;;;;;;4952469;28;20703;-61
2023/01/06 07:33:10;;;;;;;23.17;18.27;;;9.40;99.90;;;;;;4946828;29;20227;-61
2023/01/06 07:35:38;;;;;;;20.57;16.53;;;9.50;99.90;;;;;;4954068;28;20262;-61
2023/01/06 07:38:07;;;;;;;22.07;17.47;;;9.50;99.90;;;;;;4955688;28;20254;-60
2023/01/06 07:40:36;;;;;;;20.80;16.37;;;9.50;99.90;;;;;;4957192;29;20223;-60
2023/01/06 07:43:05;;;;;;;24.13;17.43;;;9.50;99.90;;;;;;4956716;28;20587;-60
2023/01/06 07:45:34;;;;;;;20.67;16.33;;;9.40;99.90;;;;;;4957105;28;20290;-60
2023/01/06 07:48:04;;;;;;;21.30;17.37;;;9.40;99.90;;;;;;4957577;29;20695;-60
2023/01/06 07:50:32;;;;;;;20.47;17.07;;;9.40;99.90;;;;;;4956976;28;20215;-60
2023/01/06 07:53:02;;;;;;;19.20;15.13;;;9.50;99.90;;;;;;4956920;28;20688;-60
2023/01/06 07:55:30;;;;;;;20.57;15.33;;;9.50;99.90;;;;;;4957232;29;20236;-60
2023/01/06 07:57:58;;;;;;;20.80;15.20;;;9.50;99.90;;;;;;4956787;29;20603;-60
2023/01/06 08:00:26;;;;;;;24.63;14.33;;;9.50;99.90;;;;;;4956077;28;20236;-59
2023/01/06 08:02:54;;;;;;;17.03;14.20;;;9.50;99.90;;;;;;4956931;28;20236;-60
2023/01/06 08:05:24;;;;;;;17.90;15.00;;;9.50;99.90;;;;;;4956556;28;20680;-60
2023/01/06 08:07:52;;;;;;;18.47;13.90;;;9.50;99.90;;;;;;4955967;29;20234;-61
2023/01/06 08:10:20;;;;;;;17.10;12.97;;;9.50;99.90;;;;;;4956808;28;20239;-60
2023/01/06 08:12:48;;;;;;;16.67;14.00;;;9.50;99.90;;;;;;4956635;29;20231;-60
2023/01/06 08:15:16;;;;;;;16.47;13.33;;;9.50;99.90;;;;;;4950891;28;20232;-59
2023/01/06 08:17:44;;;;;;;15.57;12.73;;;9.50;99.90;;;;;;4955840;29;20242;-57
2023/01/06 08:20:12;;;;;;;13.87;12.37;;;9.50;99.90;;;;;;4956706;28;20242;-60
2023/01/06 08:22:41;;;;;;;14.03;11.97;;;9.50;99.90;;;;;;4956547;28;20232;-60
2023/01/06 08:25:10;;;;;;;18.80;12.13;;;9.50;99.90;;;;;;4955731;29;20215;-60
2023/01/06 08:27:38;;;;;;;13.77;11.87;;;9.50;99.90;;;;;;4956570;28;20251;-60
2023/01/06 08:30:07;;;;;;;14.03;11.00;;;9.50;99.90;;;;;;4956424;28;20235;-60
2023/01/06 08:32:35;;;;;;;12.27;10.40;;;9.50;99.90;;;;;;4955867;28;20718;-60
2023/01/06 08:35:04;;;;;;;13.80;10.00;;;9.50;99.90;;;;;;4955946;28;20692;-60
2023/01/06 08:37:32;;;;;;;12.13;9.70;;;9.50;99.90;;;;;;4956463;28;20231;-60
2023/01/06 08:40:01;;;;;;;10.90;9.57;;;9.50;99.90;;;;;;4956659;29;20242;-61
2023/01/06 08:42:29;;;;;;;11.07;9.33;;;9.50;99.90;;;;;;4956094;29;20228;-60
2023/01/06 08:44:57;;;;;;;10.47;9.13;;;9.50;99.90;;;;;;4956394;29;20590;-60
2023/01/06 08:47:26;;;;;;;11.63;7.80;;;9.50;99.90;;;;;;4954984;29;20722;-60
2023/01/06 08:49:54;;;;;;;10.70;7.90;;;9.60;99.90;;;;;;4955096;28;20227;-59
2023/01/06 08:52:22;;;;;;;8.50;7.60;;;9.60;99.90;;;;;;4955532;29;20587;-60
2023/01/06 08:54:50;;;;;;;7.80;7.10;;;9.50;99.90;;;;;;4955671;29;20232;-60
2023/01/06 08:57:19;;;;;;;11.57;7.57;;;9.60;99.90;;;;;;4956259;28;20745;-60
2023/01/06 08:59:47;;;;;;;7.60;6.50;;;9.60;99.90;;;;;;4955662;28;20232;-60
2023/01/06 09:02:15;;;;;;;7.80;6.53;;;9.60;99.90;;;;;;4955531;28;20593;-60
2023/01/06 09:04:44;;;;;;;8.00;6.40;;;9.70;99.90;;;;;;4955408;29;20246;-59
2023/01/06 09:07:12;;;;;;;8.27;6.17;;;9.70;99.90;;;;;;4955922;28;20279;-60
2023/01/06 09:09:40;;;;;;;8.27;5.67;;;9.70;99.90;;;;;;4955984;28;20236;-60
2023/01/06 09:12:08;;;;;;;7.10;5.27;;;9.70;99.90;;;;;;4955996;28;20246;-59
2023/01/06 09:14:37;;;;;;;8.07;5.47;;;9.60;99.90;;;;;;4953963;28;20319;-59
2023/01/06 09:17:05;;;;;;;6.03;5.43;;;9.60;99.90;;;;;;4955579;29;20302;-60
2023/01/06 09:19:33;;;;;;;8.70;5.40;;;9.60;99.90;;;;;;4953895;28;20687;-60
2023/01/06 09:22:01;;;;;;;7.17;5.07;;;9.60;99.90;;;;;;4954927;28;20235;-61
2023/01/06 09:24:30;;;;;;;6.23;5.63;;;9.60;99.90;;;;;;4955135;29;20265;-60
2023/01/06 09:26:58;;;;;;;6.03;5.00;;;9.60;99.90;;;;;;4955337;29;20235;-61
2023/01/06 09:29:26;;;;;;;6.93;5.67;;;9.60;99.90;;;;;;4955493;28;20699;-60
2023/01/06 09:31:55;;;;;;;6.73;6.00;;;9.60;99.90;;;;;;4955069;28;20235;-60
2023/01/06 09:34:23;;;;;;;9.13;5.57;;;9.60;99.90;;;;;;4955488;28;20229;-60
2023/01/06 09:36:51;;;;;;;7.80;5.10;;;9.60;99.90;;;;;;4955529;28;20267;-60
2023/01/06 09:39:19;;;;;;;7.43;5.50;;;9.60;99.90;;;;;;4955306;28;20223;-60
2023/01/06 09:42:32;;;;;;;7.30;5.67;;;9.60;99.90;;;;;;4955428;28;20348;-61
2023/01/06 09:45:04;;;;;;;6.50;5.87;;;9.60;99.90;;;;;;4926067;29;20236;-60
2023/01/06 09:47:37;;;;;;;7.23;5.57;;;9.60;99.90;;;;;;4950584;28;20242;-61
2023/01/06 09:50:09;;;;;;;6.53;5.87;;;9.60;99.90;;;;;;4953960;28;20227;-61
2023/01/06 09:52:41;;;;;;;7.23;5.80;;;9.60;99.90;;;;;;4954459;29;20235;-61
2023/01/06 09:55:16;;;;;;;7.83;6.00;;;9.70;99.90;;;;;;4947112;29;20224;-61
2023/01/06 09:57:50;;;;;;;6.77;6.07;;;9.70;99.90;;;;;;4954130;28;20234;-60
2023/01/06 10:00:30;;;;;;;6.63;5.93;;;9.70;99.90;;;;;;4951189;28;20348;-59
2023/01/06 10:03:00;;;;;;;6.30;5.70;;;9.70;99.90;;;;;;4954749;29;20234;-61
2023/01/06 10:05:36;;;;;;;6.20;5.33;;;9.70;99.90;;;;;;4954153;29;20235;-60
2023/01/06 10:08:11;;;;;;;6.90;5.30;;;9.80;99.90;;;;;;4955136;29;20235;-61
2023/01/06 10:10:47;;;;;;;6.80;5.00;;;9.80;99.90;;;;;;4948607;29;20684;-60
2023/01/06 10:13:34;;;;;;;6.20;5.70;;;9.80;99.90;;;;;;4947509;29;20246;-60
2023/01/06 10:16:12;;;;;;;6.27;5.40;;;9.80;99.90;;;;;;4953511;28;20238;-61
2023/01/06 10:18:54;;;;;;;5.80;5.30;;;9.70;99.90;;;;;;4954678;29;20302;-61
2023/01/06 10:21:31;;;;;;;6.23;4.87;;;9.70;99.90;;;;;;4954811;28;20232;-61
2023/01/06 10:24:17;;;;;;;6.57;4.50;;;9.70;99.90;;;;;;4954932;29;20227;-61
2023/01/06 10:26:50;;;;;;;5.17;4.50;;;9.80;99.90;;;;;;4954101;29;20286;-61
2023/01/06 10:29:19;;;;;;;5.10;4.60;;;9.80;99.90;;;;;;4951985;28;20243;-59
2023/01/06 10:31:50;;;;;;;5.10;4.07;;;9.80;99.90;;;;;;4953449;28;20236;-60
2023/01/06 10:34:23;;;;;;;4.50;4.10;;;9.80;99.90;;;;;;4954124;29;20227;-59
2023/01/06 10:36:56;;;;;;;3.80;3.40;;;9.80;99.90;;;;;;4952101;29;20231;-60
2023/01/06 10:39:27;;;;;;;3.80;3.50;;;9.80;99.90;;;;;;4953662;28;20231;-60
2023/01/06 10:44:45;;;;;;;3.10;2.80;;;9.70;99.90;;;;;;4953004;29;20239;-60
2023/01/06 10:47:17;;;;;;;3.37;2.70;;;9.70;99.90;;;;;;4954191;29;20238;-60
2023/01/06 10:49:47;;;;;;;4.33;2.50;;;9.70;99.90;;;;;;4953939;29;20583;-61
2023/01/06 10:52:15;;;;;;;2.47;2.23;;;9.70;99.90;;;;;;4954411;28;20706;-61
2023/01/06 10:54:44;;;;;;;2.00;1.83;;;9.60;99.90;;;;;;4954446;29;20231;-61
2023/01/06 10:57:16;;;;;;;1.83;1.50;;;9.70;99.90;;;;;;4954329;29;20236;-61
2023/01/06 11:00:12;;;;;;;2.40;1.80;;;9.60;99.90;;;;;;4949635;28;20231;-60
2023/01/06 11:02:44;;;;;;;3.73;1.73;;;9.60;99.90;;;;;;4952826;28;20306;-61
2023/01/06 11:05:16;;;;;;;2.57;1.70;;;9.60;99.90;;;;;;4954189;29;20239;-61
2023/01/06 11:07:54;;;;;;;1.60;1.50;;;9.60;99.90;;;;;;4954193;28;20239;-61
2023/01/06 11:10:28;;;;;;;1.57;1.47;;;9.70;99.90;;;;;;4954859;28;20706;-61
2023/01/06 11:13:00;;;;;;;2.67;1.37;;;9.70;99.90;;;;;;4957524;28;20319;-61
2023/01/06 11:15:38;;;;;;;3.93;1.50;;;9.70;99.90;;;;;;4957737;28;20714;-61
2023/01/06 11:18:19;;;;;;;2.47;1.20;;;9.70;99.90;;;;;;4948299;28;20240;-61
2023/01/06 11:21:05;;;;;;;2.77;1.20;;;9.70;99.90;;;;;;4937321;29;20596;-60
2023/01/06 11:23:34;;;;;;;2.60;1.10;;;9.80;99.90;;;;;;4957475;28;20243;-60
2023/01/06 11:26:13;;;;;;;3.47;1.00;;;9.80;99.90;;;;;;4956769;29;20219;-60
2023/01/06 11:28:43;;;;;;;2.33;0.90;;;9.90;99.90;;;;;;4957479;28;20231;-60
2023/01/06 11:31:19;;;;;;;3.03;0.93;;;9.90;99.90;;;;;;4949871;28;20239;-61
2023/01/06 11:33:50;;;;;;;2.73;1.00;;;9.90;99.90;;;;;;4957491;29;20253;-61
2023/01/06 11:36:22;;;;;;;2.60;0.80;;;10.00;99.90;;;;;;4957850;28;20591;-59
2023/01/06 11:38:52;;;;;;;4.57;1.10;;;10.00;99.90;;;;;;4957725;29;20247;-60
2023/01/06 11:41:25;;;;;;;3.53;0.97;;;10.10;99.90;;;;;;4957741;29;20721;-61
2023/01/06 11:43:56;;;;;;;3.20;0.90;;;10.30;99.90;;;;;;4957572;28;20584;-60
2023/01/06 11:46:26;;;;;;;3.93;0.97;;;10.40;99.90;;;;;;4957659;28;20232;-60
2023/01/06 11:49:01;;;;;;;1.57;0.80;;;10.50;99.90;;;;;;4957668;29;20236;-61
2023/01/06 11:51:48;;;;;;;3.57;1.30;;;10.40;99.90;;;;;;4956232;29;20238;-60
2023/01/06 11:54:34;;;;;;;4.90;1.00;;;10.30;99.90;;;;;;4955933;29;20242;-60
2023/01/06 11:57:24;;;;;;;1.20;0.97;;;10.40;99.90;;;;;;4953817;29;20223;-59
2023/01/06 12:00:27;;;;;;;3.57;0.70;;;10.30;99.90;;;;;;4950133;29;20224;-60
2023/01/06 12:03:06;;;;;;;2.80;0.90;;;10.40;99.90;;;;;;4949852;28;20243;-61
2023/01/06 12:05:42;;;;;;;4.57;0.97;;;10.40;99.90;;;;;;4951778;29;20230;-60
2023/01/06 12:08:19;;;;;;;5.00;0.80;;;10.40;99.90;;;;;;4956387;28;20247;-60
2023/01/06 12:10:56;;;;;;;4.37;0.97;;;10.30;99.90;;;;;;4956600;29;20601;-61
2023/01/06 12:13:26;;;;;;;4.53;1.23;;;10.40;99.90;;;;;;4957025;29;20595;-60
2023/01/06 12:16:01;;;;;;;4.87;1.10;;;10.30;99.90;;;;;;4956900;28;20223;-59
2023/01/06 12:18:32;;;;;;;5.50;1.13;;;10.30;99.90;;;;;;4956864;29;20239;-60
2023/01/06 12:21:03;;;;;;;5.90;1.53;;;10.30;99.90;;;;;;4955210;28;20233;-59
2023/01/06 12:23:35;;;;;;;3.00;0.90;;;10.30;99.90;;;;;;4955521;28;20218;-60
2023/01/06 12:26:08;;;;;;;3.33;1.20;;;10.40;99.90;;;;;;4956465;29;20246;-60
2023/01/06 12:28:39;;;;;;;4.57;1.00;;;10.40;99.90;;;;;;4956672;29;20239;-60
2023/01/06 12:31:10;;;;;;;3.60;1.10;;;10.40;99.90;;;;;;4956139;28;20244;-60
2023/01/06 12:33:41;;;;;;;3.53;1.20;;;10.30;99.90;;;;;;4956076;29;20231;-61
2023/01/06 12:36:15;;;;;;;8.37;1.23;;;10.30;99.90;;;;;;4952617;29;20235;-61
2023/01/06 12:38:52;;;;;;;4.00;1.10;;;10.40;99.90;;;;;;4953643;29;20620;-60
2023/01/06 12:41:26;;;;;;;6.00;1.20;;;10.50;99.90;;;;;;4950108;29;20239;-60
2023/01/06 12:44:00;;;;;;;5.83;1.40;;;10.40;99.90;;;;;;4956743;29;20238;-61
2023/01/06 12:46:34;;;;;;;5.17;1.10;;;10.50;99.90;;;;;;4955765;29;20698;-60
2023/01/06 12:49:08;;;;;;;4.50;1.10;;;10.40;99.90;;;;;;4956060;28;20228;-60
2023/01/06 12:51:40;;;;;;;6.13;1.30;;;10.40;99.90;;;;;;4955573;29;20227;-60
2023/01/06 12:54:14;;;;;;;5.23;1.00;;;10.40;99.90;;;;;;4949604;29;20247;-58
2023/01/06 12:56:59;;;;;;;5.87;1.13;;;10.20;99.90;;;;;;4942990;28;20235;-60
2023/01/06 12:59:37;;;;;;;7.90;1.70;;;10.10;99.90;;;;;;4943341;29;20247;-57
2023/01/06 13:02:18;;;;;;;6.93;1.37;;;10.10;99.90;;;;;;4941393;28;20637;-60
2023/01/06 13:05:04;;;;;;;7.80;1.23;;;10.00;99.90;;;;;;4942643;29;20232;-55
2023/01/06 13:07:42;;;;;;;4.00;1.23;;;9.90;99.90;;;;;;4943517;29;20235;-56
2023/01/06 13:10:26;;;;;;;6.53;1.33;;;9.90;99.90;;;;;;4944918;29;20239;-59
2023/01/06 13:13:07;;;;;;;5.07;1.20;;;9.90;99.90;;;;;;4942132;29;20235;-60
2023/01/06 13:15:40;;;;;;;4.70;1.93;;;9.90;99.90;;;;;;4942917;29;20235;-59